METAR Data
IDs: Format: Raw Decoded Include TAF

Data at: 1442 UTC 25 Jan 2020

METAR for:KIFA (Iowa Falls Muni, IA, US)
Text:KIFA 251435Z AUTO 29013KT 10SM OVC008 M02/M04 A2999 RMK AO2 T10171043
Temperature: -1.7°C ( 29°F)
Dewpoint: -4.3°C ( 24°F) [RH = 82%]
Pressure (altimeter):29.99 inches Hg (1015.7 mb)
Winds:from the WNW (290 degrees) at 15 MPH (13 knots; 6.7 m/s)
Visibility:10 or more sm (16+ km)
Ceiling:800 feet AGL
Clouds: overcast cloud deck at 800 feet AGL
QC Flag:automated observation with no human augmentation